sensor_id;sensor_type;location;lat;lon;timestamp;P1;durP1;ratioP1;P2;durP2;ratioP2
65755;SDS011;69208;47.502;18.940;2023-12-04T00:00:03;8.43;;;5.70;;
65755;SDS011;69208;47.502;18.940;2023-12-04T00:01:07;8.15;;;5.70;;
65755;SDS011;69208;47.502;18.940;2023-12-04T00:02:10;8.73;;;5.40;;
65755;SDS011;69208;47.502;18.940;2023-12-04T00:03:12;8.82;;;5.53;;
65755;SDS011;69208;47.502;18.940;2023-12-04T00:04:15;8.02;;;5.55;;
65755;SDS011;69208;47.502;18.940;2023-12-04T00:05:19;8.10;;;5.80;;
65755;SDS011;69208;47.502;18.940;2023-12-04T00:06:22;8.52;;;5.50;;
65755;SDS011;69208;47.502;18.940;2023-12-04T00:07:25;7.87;;;5.47;;
65755;SDS011;69208;47.502;18.940;2023-12-04T00:08:29;7.70;;;5.50;;
65755;SDS011;69208;47.502;18.940;2023-12-04T00:09:31;8.68;;;5.70;;
65755;SDS011;69208;47.502;18.940;2023-12-04T00:10:35;9.82;;;6.03;;
65755;SDS011;69208;47.502;18.940;2023-12-04T00:11:38;7.68;;;5.43;;
65755;SDS011;69208;47.502;18.940;2023-12-04T00:12:41;7.53;;;5.37;;
65755;SDS011;69208;47.502;18.940;2023-12-04T00:13:44;8.15;;;5.70;;
65755;SDS011;69208;47.502;18.940;2023-12-04T00:14:47;9.07;;;5.43;;
65755;SDS011;69208;47.502;18.940;2023-12-04T00:15:50;7.57;;;5.55;;
65755;SDS011;69208;47.502;18.940;2023-12-04T00:16:53;7.03;;;5.18;;
65755;SDS011;69208;47.502;18.940;2023-12-04T00:17:55;8.50;;;5.78;;
65755;SDS011;69208;47.502;18.940;2023-12-04T00:18:58;8.40;;;5.62;;
65755;SDS011;69208;47.502;18.940;2023-12-04T00:20:01;7.47;;;5.43;;
65755;SDS011;69208;47.502;18.940;2023-12-04T00:21:04;7.03;;;5.32;;
65755;SDS011;69208;47.502;18.940;2023-12-04T00:22:08;8.52;;;5.60;;
65755;SDS011;69208;47.502;18.940;2023-12-04T00:23:11;9.40;;;6.00;;
65755;SDS011;69208;47.502;18.940;2023-12-04T00:24:13;7.47;;;5.40;;
65755;SDS011;69208;47.502;18.940;2023-12-04T00:25:16;7.75;;;5.30;;
65755;SDS011;69208;47.502;18.940;2023-12-04T00:26:19;7.82;;;5.35;;
65755;SDS011;69208;47.502;18.940;2023-12-04T00:27:22;9.35;;;5.97;;
65755;SDS011;69208;47.502;18.940;2023-12-04T00:28:29;8.63;;;5.80;;
65755;SDS011;69208;47.502;18.940;2023-12-04T00:29:32;7.22;;;5.40;;
65755;SDS011;69208;47.502;18.940;2023-12-04T00:30:35;7.82;;;5.60;;
65755;SDS011;69208;47.502;18.940;2023-12-04T00:31:38;8.88;;;6.00;;
65755;SDS011;69208;47.502;18.940;2023-12-04T00:32:41;8.90;;;5.87;;
65755;SDS011;69208;47.502;18.940;2023-12-04T00:33:44;7.60;;;5.25;;
65755;SDS011;69208;47.502;18.940;2023-12-04T00:34:47;9.75;;;6.28;;
65755;SDS011;69208;47.502;18.940;2023-12-04T00:35:50;9.98;;;6.30;;
65755;SDS011;69208;47.502;18.940;2023-12-04T00:36:53;8.77;;;6.47;;
65755;SDS011;69208;47.502;18.940;2023-12-04T00:37:56;10.68;;;7.07;;
65755;SDS011;69208;47.502;18.940;2023-12-04T00:38:59;9.70;;;6.85;;
65755;SDS011;69208;47.502;18.940;2023-12-04T00:40:02;9.65;;;6.75;;
65755;SDS011;69208;47.502;18.940;2023-12-04T00:41:07;10.48;;;6.75;;
65755;SDS011;69208;47.502;18.940;2023-12-04T00:42:10;10.85;;;7.30;;
65755;SDS011;69208;47.502;18.940;2023-12-04T00:43:13;9.52;;;6.75;;
65755;SDS011;69208;47.502;18.940;2023-12-04T00:44:16;11.02;;;7.03;;
65755;SDS011;69208;47.502;18.940;2023-12-04T00:45:19;11.80;;;6.93;;
65755;SDS011;69208;47.502;18.940;2023-12-04T00:46:22;9.35;;;6.45;;
65755;SDS011;69208;47.502;18.940;2023-12-04T00:47:25;9.27;;;6.20;;
65755;SDS011;69208;47.502;18.940;2023-12-04T00:48:28;11.63;;;6.12;;
65755;SDS011;69208;47.502;18.940;2023-12-04T00:49:32;9.05;;;6.20;;
65755;SDS011;69208;47.502;18.940;2023-12-04T00:50:35;8.10;;;6.07;;
65755;SDS011;69208;47.502;18.940;2023-12-04T00:51:38;8.32;;;6.18;;
65755;SDS011;69208;47.502;18.940;2023-12-04T00:52:41;11.75;;;6.60;;
65755;SDS011;69208;47.502;18.940;2023-12-04T00:53:44;8.63;;;6.30;;
65755;SDS011;69208;47.502;18.940;2023-12-04T00:54:47;10.35;;;6.40;;
65755;SDS011;69208;47.502;18.940;2023-12-04T00:55:50;8.07;;;5.75;;
65755;SDS011;69208;47.502;18.940;2023-12-04T00:56:53;8.93;;;5.68;;
65755;SDS011;69208;47.502;18.940;2023-12-04T00:57:56;8.32;;;5.85;;
65755;SDS011;69208;47.502;18.940;2023-12-04T00:58:59;8.13;;;5.57;;
65755;SDS011;69208;47.502;18.940;2023-12-04T01:00:03;8.30;;;5.50;;
65755;SDS011;69208;47.502;18.940;2023-12-04T01:01:06;7.90;;;5.80;;
65755;SDS011;69208;47.502;18.940;2023-12-04T01:02:10;8.60;;;5.95;;
65755;SDS011;69208;47.502;18.940;2023-12-04T01:03:13;8.25;;;6.12;;
65755;SDS011;69208;47.502;18.940;2023-12-04T01:04:16;8.10;;;5.68;;
65755;SDS011;69208;47.502;18.940;2023-12-04T01:05:19;7.90;;;5.57;;
65755;SDS011;69208;47.502;18.940;2023-12-04T01:06:23;8.32;;;5.60;;
65755;SDS011;69208;47.502;18.940;2023-12-04T01:07:27;9.00;;;5.75;;
65755;SDS011;69208;47.502;18.940;2023-12-04T01:08:30;8.73;;;5.40;;
65755;SDS011;69208;47.502;18.940;2023-12-04T01:09:36;7.53;;;5.45;;
65755;SDS011;69208;47.502;18.940;2023-12-04T01:10:39;8.27;;;5.55;;
65755;SDS011;69208;47.502;18.940;2023-12-04T01:11:42;8.10;;;5.28;;
65755;SDS011;69208;47.502;18.940;2023-12-04T01:12:45;7.97;;;5.47;;
65755;SDS011;69208;47.502;18.940;2023-12-04T01:13:49;7.18;;;5.20;;
65755;SDS011;69208;47.502;18.940;2023-12-04T01:14:52;6.90;;;5.12;;
65755;SDS011;69208;47.502;18.940;2023-12-04T01:15:55;7.75;;;5.60;;
65755;SDS011;69208;47.502;18.940;2023-12-04T01:16:58;8.30;;;5.60;;
65755;SDS011;69208;47.502;18.940;2023-12-04T01:18:01;8.52;;;5.20;;
65755;SDS011;69208;47.502;18.940;2023-12-04T01:19:05;7.70;;;5.57;;
65755;SDS011;69208;47.502;18.940;2023-12-04T01:20:08;7.50;;;5.20;;
65755;SDS011;69208;47.502;18.940;2023-12-04T01:21:11;8.25;;;5.65;;
65755;SDS011;69208;47.502;18.940;2023-12-04T01:22:14;8.77;;;5.32;;
65755;SDS011;69208;47.502;18.940;2023-12-04T01:23:17;7.37;;;5.47;;
65755;SDS011;69208;47.502;18.940;2023-12-04T01:24:20;7.57;;;5.30;;
65755;SDS011;69208;47.502;18.940;2023-12-04T01:25:23;8.43;;;5.50;;
65755;SDS011;69208;47.502;18.940;2023-12-04T01:26:26;8.40;;;5.15;;
65755;SDS011;69208;47.502;18.940;2023-12-04T01:27:29;7.70;;;5.57;;
65755;SDS011;69208;47.502;18.940;2023-12-04T01:28:32;7.87;;;5.37;;
65755;SDS011;69208;47.502;18.940;2023-12-04T01:29:35;7.25;;;5.10;;
65755;SDS011;69208;47.502;18.940;2023-12-04T01:30:38;7.45;;;5.40;;
65755;SDS011;69208;47.502;18.940;2023-12-04T01:31:42;8.65;;;5.93;;
65755;SDS011;69208;47.502;18.940;2023-12-04T01:32:45;7.43;;;5.30;;
65755;SDS011;69208;47.502;18.940;2023-12-04T01:33:48;6.97;;;5.18;;
65755;SDS011;69208;47.502;18.940;2023-12-04T01:34:51;13.25;;;5.90;;
65755;SDS011;69208;47.502;18.940;2023-12-04T01:35:54;9.45;;;6.28;;
65755;SDS011;69208;47.502;18.940;2023-12-04T01:36:57;9.15;;;5.90;;
65755;SDS011;69208;47.502;18.940;2023-12-04T01:38:00;7.10;;;5.18;;
65755;SDS011;69208;47.502;18.940;2023-12-04T01:39:03;8.50;;;5.43;;
65755;SDS011;69208;47.502;18.940;2023-12-04T01:40:06;9.32;;;6.18;;
65755;SDS011;69208;47.502;18.940;2023-12-04T01:41:10;10.93;;;6.70;;
65755;SDS011;69208;47.502;18.940;2023-12-04T01:42:13;10.38;;;6.82;;
65755;SDS011;69208;47.502;18.940;2023-12-04T01:43:15;10.13;;;6.95;;
65755;SDS011;69208;47.502;18.940;2023-12-04T01:44:18;10.30;;;7.05;;
65755;SDS011;69208;47.502;18.940;2023-12-04T01:45:22;10.90;;;7.00;;
65755;SDS011;69208;47.502;18.940;2023-12-04T01:46:25;11.25;;;6.72;;
65755;SDS011;69208;47.502;18.940;2023-12-04T01:47:28;10.25;;;6.35;;
65755;SDS011;69208;47.502;18.940;2023-12-04T01:48:31;8.57;;;6.45;;
65755;SDS011;69208;47.502;18.940;2023-12-04T01:49:35;10.10;;;6.55;;
65755;SDS011;69208;47.502;18.940;2023-12-04T01:50:39;10.88;;;7.20;;
65755;SDS011;69208;47.502;18.940;2023-12-04T01:51:42;10.18;;;7.00;;
65755;SDS011;69208;47.502;18.940;2023-12-04T01:52:46;9.65;;;7.05;;
65755;SDS011;69208;47.502;18.940;2023-12-04T01:53:50;9.93;;;6.82;;
65755;SDS011;69208;47.502;18.940;2023-12-04T01:54:53;10.23;;;6.62;;
65755;SDS011;69208;47.502;18.940;2023-12-04T01:55:56;9.70;;;6.50;;
65755;SDS011;69208;47.502;18.940;2023-12-04T01:56:59;11.80;;;6.72;;
65755;SDS011;69208;47.502;18.940;2023-12-04T01:58:05;9.18;;;6.60;;
65755;SDS011;69208;47.502;18.940;2023-12-04T01:59:09;9.80;;;6.37;;
65755;SDS011;69208;47.502;18.940;2023-12-04T02:00:12;9.93;;;7.07;;
65755;SDS011;69208;47.502;18.940;2023-12-04T02:01:17;9.55;;;6.50;;
65755;SDS011;69208;47.502;18.940;2023-12-04T02:02:22;9.15;;;6.35;;
65755;SDS011;69208;47.502;18.940;2023-12-04T02:03:25;11.52;;;7.22;;
65755;SDS011;69208;47.502;18.940;2023-12-04T02:04:29;9.68;;;6.78;;
65755;SDS011;69208;47.502;18.940;2023-12-04T02:05:34;9.40;;;6.68;;
65755;SDS011;69208;47.502;18.940;2023-12-04T02:06:39;10.75;;;7.70;;
65755;SDS011;69208;47.502;18.940;2023-12-04T02:07:43;10.25;;;7.37;;
65755;SDS011;69208;47.502;18.940;2023-12-04T02:08:47;9.95;;;7.12;;
65755;SDS011;69208;47.502;18.940;2023-12-04T02:09:50;11.20;;;7.20;;
65755;SDS011;69208;47.502;18.940;2023-12-04T02:10:54;10.32;;;7.32;;
65755;SDS011;69208;47.502;18.940;2023-12-04T02:11:57;11.52;;;7.45;;
65755;SDS011;69208;47.502;18.940;2023-12-04T02:13:01;10.80;;;7.68;;
65755;SDS011;69208;47.502;18.940;2023-12-04T02:14:05;9.98;;;7.25;;
65755;SDS011;69208;47.502;18.940;2023-12-04T02:15:09;12.95;;;7.78;;
65755;SDS011;69208;47.502;18.940;2023-12-04T02:16:12;9.85;;;7.03;;
65755;SDS011;69208;47.502;18.940;2023-12-04T02:17:17;9.80;;;6.82;;
65755;SDS011;69208;47.502;18.940;2023-12-04T02:18:21;10.90;;;6.80;;
65755;SDS011;69208;47.502;18.940;2023-12-04T02:19:24;10.60;;;7.10;;
65755;SDS011;69208;47.502;18.940;2023-12-04T02:20:34;9.35;;;6.70;;
65755;SDS011;69208;47.502;18.940;2023-12-04T02:21:38;11.73;;;7.18;;
65755;SDS011;69208;47.502;18.940;2023-12-04T02:22:41;10.00;;;6.68;;
65755;SDS011;69208;47.502;18.940;2023-12-04T02:23:48;9.38;;;6.70;;
65755;SDS011;69208;47.502;18.940;2023-12-04T02:24:55;9.93;;;6.65;;
65755;SDS011;69208;47.502;18.940;2023-12-04T02:26:05;8.93;;;6.30;;
65755;SDS011;69208;47.502;18.940;2023-12-04T02:27:23;8.80;;;6.62;;
65755;SDS011;69208;47.502;18.940;2023-12-04T02:28:33;9.52;;;6.57;;
65755;SDS011;69208;47.502;18.940;2023-12-04T02:29:41;11.60;;;6.43;;
65755;SDS011;69208;47.502;18.940;2023-12-04T02:30:50;11.27;;;6.25;;
65755;SDS011;69208;47.502;18.940;2023-12-04T02:31:53;11.90;;;6.30;;
65755;SDS011;69208;47.502;18.940;2023-12-04T02:32:59;10.73;;;6.30;;
65755;SDS011;69208;47.502;18.940;2023-12-04T02:34:04;9.75;;;6.78;;
65755;SDS011;69208;47.502;18.940;2023-12-04T02:35:09;10.13;;;6.93;;
65755;SDS011;69208;47.502;18.940;2023-12-04T02:36:14;8.40;;;6.20;;
65755;SDS011;69208;47.502;18.940;2023-12-04T02:37:18;8.55;;;6.35;;
65755;SDS011;69208;47.502;18.940;2023-12-04T02:38:22;8.98;;;6.55;;
65755;SDS011;69208;47.502;18.940;2023-12-04T02:39:26;10.63;;;6.15;;
65755;SDS011;69208;47.502;18.940;2023-12-04T02:40:30;9.82;;;6.60;;
65755;SDS011;69208;47.502;18.940;2023-12-04T02:41:33;10.52;;;6.82;;
65755;SDS011;69208;47.502;18.940;2023-12-04T02:42:36;10.82;;;7.20;;
65755;SDS011;69208;47.502;18.940;2023-12-04T02:43:39;8.73;;;6.12;;
65755;SDS011;69208;47.502;18.940;2023-12-04T02:44:42;9.77;;;6.57;;
65755;SDS011;69208;47.502;18.940;2023-12-04T02:45:45;8.38;;;5.85;;
65755;SDS011;69208;47.502;18.940;2023-12-04T02:46:49;9.65;;;6.37;;
65755;SDS011;69208;47.502;18.940;2023-12-04T02:47:52;9.70;;;6.45;;
65755;SDS011;69208;47.502;18.940;2023-12-04T02:48:55;8.80;;;6.18;;
65755;SDS011;69208;47.502;18.940;2023-12-04T02:49:58;10.43;;;6.37;;
65755;SDS011;69208;47.502;18.940;2023-12-04T02:51:01;7.95;;;5.75;;
65755;SDS011;69208;47.502;18.940;2023-12-04T02:52:06;8.48;;;6.25;;
65755;SDS011;69208;47.502;18.940;2023-12-04T02:53:09;8.23;;;5.87;;
65755;SDS011;69208;47.502;18.940;2023-12-04T02:54:12;9.38;;;5.95;;
65755;SDS011;69208;47.502;18.940;2023-12-04T02:55:15;8.10;;;6.03;;
65755;SDS011;69208;47.502;18.940;2023-12-04T02:56:19;8.15;;;5.97;;
65755;SDS011;69208;47.502;18.940;2023-12-04T02:57:22;10.82;;;6.57;;
65755;SDS011;69208;47.502;18.940;2023-12-04T02:58:25;9.40;;;6.25;;
65755;SDS011;69208;47.502;18.940;2023-12-04T02:59:28;8.23;;;6.12;;
65755;SDS011;69208;47.502;18.940;2023-12-04T03:00:31;9.80;;;6.80;;
65755;SDS011;69208;47.502;18.940;2023-12-04T03:01:34;10.07;;;6.70;;
65755;SDS011;69208;47.502;18.940;2023-12-04T03:02:37;10.15;;;6.57;;
65755;SDS011;69208;47.502;18.940;2023-12-04T03:03:40;8.30;;;6.18;;
65755;SDS011;69208;47.502;18.940;2023-12-04T03:04:43;8.55;;;6.15;;
65755;SDS011;69208;47.502;18.940;2023-12-04T03:05:47;10.32;;;6.95;;
65755;SDS011;69208;47.502;18.940;2023-12-04T03:06:50;8.60;;;6.20;;
65755;SDS011;69208;47.502;18.940;2023-12-04T03:07:53;9.70;;;6.68;;
65755;SDS011;69208;47.502;18.940;2023-12-04T03:08:56;10.40;;;6.95;;
65755;SDS011;69208;47.502;18.940;2023-12-04T03:10:00;10.88;;;6.70;;
65755;SDS011;69208;47.502;18.940;2023-12-04T03:11:03;11.52;;;6.68;;
65755;SDS011;69208;47.502;18.940;2023-12-04T03:12:06;9.95;;;6.93;;
65755;SDS011;69208;47.502;18.940;2023-12-04T03:13:09;10.50;;;7.47;;
65755;SDS011;69208;47.502;18.940;2023-12-04T03:14:12;11.25;;;7.57;;
65755;SDS011;69208;47.502;18.940;2023-12-04T03:15:15;11.30;;;7.12;;
65755;SDS011;69208;47.502;18.940;2023-12-04T03:16:18;10.82;;;7.53;;
65755;SDS011;69208;47.502;18.940;2023-12-04T03:17:21;10.60;;;6.78;;
65755;SDS011;69208;47.502;18.940;2023-12-04T03:18:24;9.35;;;6.47;;
65755;SDS011;69208;47.502;18.940;2023-12-04T03:19:28;9.80;;;6.90;;
65755;SDS011;69208;47.502;18.940;2023-12-04T03:20:32;10.30;;;7.20;;
65755;SDS011;69208;47.502;18.940;2023-12-04T03:21:35;13.10;;;7.43;;
65755;SDS011;69208;47.502;18.940;2023-12-04T03:22:38;11.00;;;7.25;;
65755;SDS011;69208;47.502;18.940;2023-12-04T03:23:41;10.95;;;7.30;;
65755;SDS011;69208;47.502;18.940;2023-12-04T03:24:44;11.07;;;7.22;;
65755;SDS011;69208;47.502;18.940;2023-12-04T03:25:47;10.13;;;7.07;;
65755;SDS011;69208;47.502;18.940;2023-12-04T03:26:51;10.27;;;7.40;;
65755;SDS011;69208;47.502;18.940;2023-12-04T03:27:53;10.15;;;7.07;;
65755;SDS011;69208;47.502;18.940;2023-12-04T03:28:57;12.95;;;7.65;;
65755;SDS011;69208;47.502;18.940;2023-12-04T03:29:59;12.27;;;7.43;;
65755;SDS011;69208;47.502;18.940;2023-12-04T03:31:02;11.10;;;7.28;;
65755;SDS011;69208;47.502;18.940;2023-12-04T03:32:05;9.95;;;7.12;;
65755;SDS011;69208;47.502;18.940;2023-12-04T03:33:08;11.48;;;8.07;;
65755;SDS011;69208;47.502;18.940;2023-12-04T03:34:13;10.82;;;7.75;;
65755;SDS011;69208;47.502;18.940;2023-12-04T03:35:16;11.90;;;7.72;;
65755;SDS011;69208;47.502;18.940;2023-12-04T03:36:19;12.07;;;8.05;;
65755;SDS011;69208;47.502;18.940;2023-12-04T03:37:22;12.93;;;8.50;;
65755;SDS011;69208;47.502;18.940;2023-12-04T03:38:25;12.85;;;8.27;;
65755;SDS011;69208;47.502;18.940;2023-12-04T03:39:29;12.43;;;8.15;;
65755;SDS011;69208;47.502;18.940;2023-12-04T03:40:32;11.52;;;7.82;;
65755;SDS011;69208;47.502;18.940;2023-12-04T03:41:35;11.60;;;7.93;;
65755;SDS011;69208;47.502;18.940;2023-12-04T03:42:38;10.82;;;8.05;;
65755;SDS011;69208;47.502;18.940;2023-12-04T03:43:41;10.77;;;8.02;;
65755;SDS011;69208;47.502;18.940;2023-12-04T03:44:44;10.02;;;7.10;;
65755;SDS011;69208;47.502;18.940;2023-12-04T03:45:47;11.07;;;7.65;;
65755;SDS011;69208;47.502;18.940;2023-12-04T03:46:50;10.30;;;7.20;;
65755;SDS011;69208;47.502;18.940;2023-12-04T03:47:54;11.57;;;7.80;;
65755;SDS011;69208;47.502;18.940;2023-12-04T03:48:57;13.60;;;7.85;;
65755;SDS011;69208;47.502;18.940;2023-12-04T03:50:00;10.73;;;7.85;;
65755;SDS011;69208;47.502;18.940;2023-12-04T03:51:04;12.70;;;8.20;;
65755;SDS011;69208;47.502;18.940;2023-12-04T03:52:08;12.13;;;8.02;;
65755;SDS011;69208;47.502;18.940;2023-12-04T03:53:11;10.18;;;7.47;;
65755;SDS011;69208;47.502;18.940;2023-12-04T03:54:14;12.18;;;8.20;;
65755;SDS011;69208;47.502;18.940;2023-12-04T03:55:17;11.82;;;8.57;;
65755;SDS011;69208;47.502;18.940;2023-12-04T03:56:22;11.93;;;7.72;;
65755;SDS011;69208;47.502;18.940;2023-12-04T03:57:25;12.07;;;7.87;;
65755;SDS011;69208;47.502;18.940;2023-12-04T03:58:28;10.13;;;7.32;;
65755;SDS011;69208;47.502;18.940;2023-12-04T03:59:31;11.20;;;7.43;;
65755;SDS011;69208;47.502;18.940;2023-12-04T04:00:34;11.77;;;7.62;;
65755;SDS011;69208;47.502;18.940;2023-12-04T04:01:38;11.35;;;7.95;;
65755;SDS011;69208;47.502;18.940;2023-12-04T04:02:42;10.23;;;7.60;;
65755;SDS011;69208;47.502;18.940;2023-12-04T04:03:45;10.93;;;7.72;;
65755;SDS011;69208;47.502;18.940;2023-12-04T04:04:48;10.48;;;7.87;;
65755;SDS011;69208;47.502;18.940;2023-12-04T04:05:51;10.63;;;7.18;;
65755;SDS011;69208;47.502;18.940;2023-12-04T04:06:54;9.93;;;7.30;;
65755;SDS011;69208;47.502;18.940;2023-12-04T04:07:57;9.98;;;7.45;;
65755;SDS011;69208;47.502;18.940;2023-12-04T04:09:00;12.65;;;7.90;;
65755;SDS011;69208;47.502;18.940;2023-12-04T04:10:03;13.40;;;7.50;;
65755;SDS011;69208;47.502;18.940;2023-12-04T04:11:07;11.00;;;7.70;;
65755;SDS011;69208;47.502;18.940;2023-12-04T04:12:10;11.27;;;7.70;;
65755;SDS011;69208;47.502;18.940;2023-12-04T04:13:13;12.25;;;8.00;;
65755;SDS011;69208;47.502;18.940;2023-12-04T04:14:16;10.02;;;7.72;;
65755;SDS011;69208;47.502;18.940;2023-12-04T04:15:19;10.93;;;7.72;;
65755;SDS011;69208;47.502;18.940;2023-12-04T04:16:22;10.98;;;7.87;;
65755;SDS011;69208;47.502;18.940;2023-12-04T04:17:25;12.63;;;8.75;;
65755;SDS011;69208;47.502;18.940;2023-12-04T04:18:31;13.57;;;8.52;;
65755;SDS011;69208;47.502;18.940;2023-12-04T04:19:34;11.85;;;8.10;;
65755;SDS011;69208;47.502;18.940;2023-12-04T04:20:37;11.93;;;8.30;;
65755;SDS011;69208;47.502;18.940;2023-12-04T04:21:40;10.40;;;7.75;;
65755;SDS011;69208;47.502;18.940;2023-12-04T04:22:43;12.13;;;8.43;;
65755;SDS011;69208;47.502;18.940;2023-12-04T04:23:46;12.02;;;7.95;;
65755;SDS011;69208;47.502;18.940;2023-12-04T04:24:49;16.62;;;8.43;;
65755;SDS011;69208;47.502;18.940;2023-12-04T04:25:52;12.23;;;8.13;;
65755;SDS011;69208;47.502;18.940;2023-12-04T04:26:55;10.75;;;7.78;;
65755;SDS011;69208;47.502;18.940;2023-12-04T04:27:58;11.65;;;8.07;;
65755;SDS011;69208;47.502;18.940;2023-12-04T04:29:01;10.80;;;7.62;;
65755;SDS011;69208;47.502;18.940;2023-12-04T04:30:04;11.02;;;8.07;;
65755;SDS011;69208;47.502;18.940;2023-12-04T04:31:08;10.77;;;7.72;;
65755;SDS011;69208;47.502;18.940;2023-12-04T04:32:10;11.23;;;7.87;;
65755;SDS011;69208;47.502;18.940;2023-12-04T04:33:16;10.88;;;7.45;;
65755;SDS011;69208;47.502;18.940;2023-12-04T04:34:20;11.07;;;7.72;;
65755;SDS011;69208;47.502;18.940;2023-12-04T04:35:24;11.60;;;7.97;;
65755;SDS011;69208;47.502;18.940;2023-12-04T04:36:27;11.07;;;7.47;;
65755;SDS011;69208;47.502;18.940;2023-12-04T04:37:30;10.60;;;7.28;;
65755;SDS011;69208;47.502;18.940;2023-12-04T04:38:33;11.73;;;8.25;;
65755;SDS011;69208;47.502;18.940;2023-12-04T04:39:36;11.05;;;7.32;;
65755;SDS011;69208;47.502;18.940;2023-12-04T04:40:39;10.00;;;6.97;;
65755;SDS011;69208;47.502;18.940;2023-12-04T04:41:44;9.80;;;6.93;;
65755;SDS011;69208;47.502;18.940;2023-12-04T04:42:47;9.90;;;6.82;;
65755;SDS011;69208;47.502;18.940;2023-12-04T04:43:51;11.50;;;6.70;;
65755;SDS011;69208;47.502;18.940;2023-12-04T04:44:54;11.68;;;7.45;;
65755;SDS011;69208;47.502;18.940;2023-12-04T04:45:56;8.80;;;6.60;;
65755;SDS011;69208;47.502;18.940;2023-12-04T04:46:59;12.30;;;7.07;;
65755;SDS011;69208;47.502;18.940;2023-12-04T04:48:02;8.93;;;5.90;;
65755;SDS011;69208;47.502;18.940;2023-12-04T04:49:05;9.38;;;6.65;;
65755;SDS011;69208;47.502;18.940;2023-12-04T04:50:09;10.73;;;6.15;;
65755;SDS011;69208;47.502;18.940;2023-12-04T04:51:12;9.45;;;6.00;;
65755;SDS011;69208;47.502;18.940;2023-12-04T04:52:15;8.75;;;5.68;;
65755;SDS011;69208;47.502;18.940;2023-12-04T04:53:19;8.48;;;6.15;;
65755;SDS011;69208;47.502;18.940;2023-12-04T04:54:22;8.13;;;5.97;;
65755;SDS011;69208;47.502;18.940;2023-12-04T04:55:25;8.02;;;5.80;;
65755;SDS011;69208;47.502;18.940;2023-12-04T04:56:48;7.40;;;5.07;;
65755;SDS011;69208;47.502;18.940;2023-12-04T04:57:51;8.60;;;5.32;;
65755;SDS011;69208;47.502;18.940;2023-12-04T04:58:54;8.82;;;5.80;;
65755;SDS011;69208;47.502;18.940;2023-12-04T04:59:58;7.68;;;5.62;;
65755;SDS011;69208;47.502;18.940;2023-12-04T05:01:01;7.78;;;5.32;;
65755;SDS011;69208;47.502;18.940;2023-12-04T05:02:05;8.40;;;5.90;;
65755;SDS011;69208;47.502;18.940;2023-12-04T05:03:08;7.37;;;5.50;;
65755;SDS011;69208;47.502;18.940;2023-12-04T05:04:11;8.55;;;5.37;;
65755;SDS011;69208;47.502;18.940;2023-12-04T05:05:15;8.32;;;5.90;;
65755;SDS011;69208;47.502;18.940;2023-12-04T05:06:18;8.35;;;5.90;;
65755;SDS011;69208;47.502;18.940;2023-12-04T05:07:21;7.22;;;5.32;;
65755;SDS011;69208;47.502;18.940;2023-12-04T05:08:24;7.12;;;5.30;;
65755;SDS011;69208;47.502;18.940;2023-12-04T05:09:27;8.82;;;5.90;;
65755;SDS011;69208;47.502;18.940;2023-12-04T05:10:30;7.60;;;5.22;;
65755;SDS011;69208;47.502;18.940;2023-12-04T05:11:34;8.90;;;5.82;;
65755;SDS011;69208;47.502;18.940;2023-12-04T05:12:37;7.78;;;5.90;;
65755;SDS011;69208;47.502;18.940;2023-12-04T05:13:40;7.47;;;5.15;;
65755;SDS011;69208;47.502;18.940;2023-12-04T05:14:43;10.68;;;5.95;;
65755;SDS011;69208;47.502;18.940;2023-12-04T05:15:46;8.07;;;5.95;;
65755;SDS011;69208;47.502;18.940;2023-12-04T05:16:49;8.10;;;5.62;;
65755;SDS011;69208;47.502;18.940;2023-12-04T05:17:52;8.55;;;6.07;;
65755;SDS011;69208;47.502;18.940;2023-12-04T05:18:56;8.10;;;5.53;;
65755;SDS011;69208;47.502;18.940;2023-12-04T05:19:59;10.48;;;6.72;;
65755;SDS011;69208;47.502;18.940;2023-12-04T05:21:03;8.18;;;6.28;;
65755;SDS011;69208;47.502;18.940;2023-12-04T05:22:06;8.13;;;6.32;;
65755;SDS011;69208;47.502;18.940;2023-12-04T05:23:09;9.45;;;6.68;;
65755;SDS011;69208;47.502;18.940;2023-12-04T05:24:12;9.05;;;6.60;;
65755;SDS011;69208;47.502;18.940;2023-12-04T05:25:15;8.32;;;6.30;;
65755;SDS011;69208;47.502;18.940;2023-12-04T05:26:18;9.25;;;6.10;;
65755;SDS011;69208;47.502;18.940;2023-12-04T05:27:21;8.25;;;6.32;;
65755;SDS011;69208;47.502;18.940;2023-12-04T05:28:24;8.15;;;5.97;;
65755;SDS011;69208;47.502;18.940;2023-12-04T05:29:27;8.80;;;6.22;;
65755;SDS011;69208;47.502;18.940;2023-12-04T05:30:30;8.65;;;6.20;;
65755;SDS011;69208;47.502;18.940;2023-12-04T05:31:33;11.05;;;6.32;;
65755;SDS011;69208;47.502;18.940;2023-12-04T05:32:36;7.85;;;5.55;;
65755;SDS011;69208;47.502;18.940;2023-12-04T05:33:40;8.75;;;5.85;;
65755;SDS011;69208;47.502;18.940;2023-12-04T05:34:47;9.60;;;6.10;;
65755;SDS011;69208;47.502;18.940;2023-12-04T05:35:50;9.07;;;6.03;;
65755;SDS011;69208;47.502;18.940;2023-12-04T05:36:56;9.55;;;6.03;;
65755;SDS011;69208;47.502;18.940;2023-12-04T05:37:59;10.25;;;6.12;;
65755;SDS011;69208;47.502;18.940;2023-12-04T05:39:02;9.45;;;6.03;;
65755;SDS011;69208;47.502;18.940;2023-12-04T05:40:07;8.40;;;5.75;;
65755;SDS011;69208;47.502;18.940;2023-12-04T05:41:11;7.70;;;5.68;;
65755;SDS011;69208;47.502;18.940;2023-12-04T05:42:14;12.50;;;6.57;;
65755;SDS011;69208;47.502;18.940;2023-12-04T05:43:17;9.80;;;6.43;;
65755;SDS011;69208;47.502;18.940;2023-12-04T05:44:21;8.95;;;6.07;;
65755;SDS011;69208;47.502;18.940;2023-12-04T05:45:24;9.75;;;6.25;;
65755;SDS011;69208;47.502;18.940;2023-12-04T05:46:27;9.48;;;6.80;;
65755;SDS011;69208;47.502;18.940;2023-12-04T05:47:30;9.30;;;6.55;;
65755;SDS011;69208;47.502;18.940;2023-12-04T05:48:34;8.50;;;6.20;;
65755;SDS011;69208;47.502;18.940;2023-12-04T05:49:37;10.70;;;6.93;;
65755;SDS011;69208;47.502;18.940;2023-12-04T05:50:40;9.75;;;6.68;;
65755;SDS011;69208;47.502;18.940;2023-12-04T05:51:43;9.15;;;6.62;;
65755;SDS011;69208;47.502;18.940;2023-12-04T05:52:46;11.27;;;7.25;;
65755;SDS011;69208;47.502;18.940;2023-12-04T05:53:49;10.43;;;7.32;;
65755;SDS011;69208;47.502;18.940;2023-12-04T05:54:52;11.15;;;7.20;;
65755;SDS011;69208;47.502;18.940;2023-12-04T05:55:55;9.98;;;7.20;;
65755;SDS011;69208;47.502;18.940;2023-12-04T05:56:58;8.85;;;6.60;;
65755;SDS011;69208;47.502;18.940;2023-12-04T05:58:01;9.35;;;6.85;;
65755;SDS011;69208;47.502;18.940;2023-12-04T05:59:05;10.57;;;7.07;;
65755;SDS011;69208;47.502;18.940;2023-12-04T06:00:08;9.55;;;7.03;;
65755;SDS011;69208;47.502;18.940;2023-12-04T06:01:15;10.38;;;6.75;;
65755;SDS011;69208;47.502;18.940;2023-12-04T06:02:18;10.43;;;6.90;;
65755;SDS011;69208;47.502;18.940;2023-12-04T06:03:22;8.40;;;6.28;;
65755;SDS011;69208;47.502;18.940;2023-12-04T06:04:25;9.75;;;6.90;;
65755;SDS011;69208;47.502;18.940;2023-12-04T06:05:29;9.52;;;6.55;;
65755;SDS011;69208;47.502;18.940;2023-12-04T06:06:32;9.68;;;6.75;;
65755;SDS011;69208;47.502;18.940;2023-12-04T06:07:35;11.93;;;7.37;;
65755;SDS011;69208;47.502;18.940;2023-12-04T06:08:40;9.55;;;7.05;;
65755;SDS011;69208;47.502;18.940;2023-12-04T06:09:43;10.80;;;7.00;;
65755;SDS011;69208;47.502;18.940;2023-12-04T06:10:46;8.95;;;6.78;;
65755;SDS011;69208;47.502;18.940;2023-12-04T06:11:49;8.88;;;6.43;;
65755;SDS011;69208;47.502;18.940;2023-12-04T06:12:52;9.43;;;6.60;;
65755;SDS011;69208;47.502;18.940;2023-12-04T06:13:55;8.85;;;6.57;;